sensor_id;sensor_type;location;lat;lon;timestamp;pressure;altitude;pressure_sealevel;temperature;humidity
62926;BME280;55732;52.248;-0.844;2022-09-09T00:00:41;99388.83;;;15.52;82.52
62926;BME280;55732;52.248;-0.844;2022-09-09T00:03:18;99388.30;;;15.53;82.39
62926;BME280;55732;52.248;-0.844;2022-09-09T00:05:48;99387.29;;;15.51;82.40
62926;BME280;55732;52.248;-0.844;2022-09-09T00:08:22;99387.27;;;15.52;82.19
62926;BME280;55732;52.248;-0.844;2022-09-09T00:10:58;99385.73;;;15.50;82.24
62926;BME280;55732;52.248;-0.844;2022-09-09T00:16:22;99389.69;;;15.49;82.37
62926;BME280;55732;52.248;-0.844;2022-09-09T00:21:26;99391.44;;;15.49;82.27
62926;BME280;55732;52.248;-0.844;2022-09-09T00:23:57;99393.10;;;15.48;82.26
62926;BME280;55732;52.248;-0.844;2022-09-09T00:26:38;99385.83;;;15.47;82.25
62926;BME280;55732;52.248;-0.844;2022-09-09T00:29:05;99392.20;;;15.48;82.00
62926;BME280;55732;52.248;-0.844;2022-09-09T00:31:35;99393.27;;;15.47;82.09
62926;BME280;55732;52.248;-0.844;2022-09-09T00:34:12;99397.55;;;15.47;81.84
62926;BME280;55732;52.248;-0.844;2022-09-09T00:36:40;99395.60;;;15.47;81.93
62926;BME280;55732;52.248;-0.844;2022-09-09T00:39:12;99392.77;;;15.47;81.79
62926;BME280;55732;52.248;-0.844;2022-09-09T00:41:55;99389.41;;;15.47;82.11
62926;BME280;55732;52.248;-0.844;2022-09-09T00:44:33;99388.85;;;15.43;82.13
62926;BME280;55732;52.248;-0.844;2022-09-09T00:47:53;99389.99;;;15.41;81.97
62926;BME280;55732;52.248;-0.844;2022-09-09T00:50:41;99390.17;;;15.41;82.08
62926;BME280;55732;52.248;-0.844;2022-09-09T00:53:21;99390.88;;;15.41;82.03
62926;BME280;55732;52.248;-0.844;2022-09-09T00:56:01;99389.66;;;15.40;81.94
62926;BME280;55732;52.248;-0.844;2022-09-09T00:58:30;99386.52;;;15.39;82.10
62926;BME280;55732;52.248;-0.844;2022-09-09T01:01:06;99384.42;;;15.38;82.06
62926;BME280;55732;52.248;-0.844;2022-09-09T01:03:36;99388.89;;;15.38;81.89
62926;BME280;55732;52.248;-0.844;2022-09-09T01:08:48;99395.30;;;15.33;81.91
62926;BME280;55732;52.248;-0.844;2022-09-09T01:11:33;99395.70;;;15.32;81.84
62926;BME280;55732;52.248;-0.844;2022-09-09T01:14:16;99398.08;;;15.30;81.87
62926;BME280;55732;52.248;-0.844;2022-09-09T01:16:50;99399.83;;;15.31;81.95
62926;BME280;55732;52.248;-0.844;2022-09-09T01:19:26;99399.95;;;15.32;81.98
62926;BME280;55732;52.248;-0.844;2022-09-09T01:22:31;99400.00;;;15.31;81.84
62926;BME280;55732;52.248;-0.844;2022-09-09T01:27:20;99395.65;;;15.29;82.07
62926;BME280;55732;52.248;-0.844;2022-09-09T01:29:46;99397.10;;;15.28;82.30
62926;BME280;55732;52.248;-0.844;2022-09-09T01:32:50;99399.27;;;15.27;82.20
62926;BME280;55732;52.248;-0.844;2022-09-09T01:35:32;99401.02;;;15.27;82.25
62926;BME280;55732;52.248;-0.844;2022-09-09T01:38:00;99400.67;;;15.27;82.27
62926;BME280;55732;52.248;-0.844;2022-09-09T01:40:26;99403.36;;;15.26;82.27
62926;BME280;55732;52.248;-0.844;2022-09-09T01:42:52;99398.62;;;15.25;82.37
62926;BME280;55732;52.248;-0.844;2022-09-09T01:45:18;99402.17;;;15.25;82.28
62926;BME280;55732;52.248;-0.844;2022-09-09T01:47:45;99397.92;;;15.25;82.29
62926;BME280;55732;52.248;-0.844;2022-09-09T01:50:13;99394.20;;;15.25;82.28
62926;BME280;55732;52.248;-0.844;2022-09-09T01:52:40;99389.79;;;15.24;82.27
62926;BME280;55732;52.248;-0.844;2022-09-09T01:55:06;99393.30;;;15.25;82.38
62926;BME280;55732;52.248;-0.844;2022-09-09T01:57:50;99391.00;;;15.25;82.39
62926;BME280;55732;52.248;-0.844;2022-09-09T02:00:19;99389.60;;;15.24;82.41
62926;BME280;55732;52.248;-0.844;2022-09-09T02:05:38;99398.65;;;15.20;82.38
62926;BME280;55732;52.248;-0.844;2022-09-09T02:08:09;99398.86;;;15.19;82.35
62926;BME280;55732;52.248;-0.844;2022-09-09T02:11:00;99395.54;;;15.18;82.59
62926;BME280;55732;52.248;-0.844;2022-09-09T02:13:27;99394.55;;;15.16;82.63
62926;BME280;55732;52.248;-0.844;2022-09-09T02:16:08;99393.91;;;15.14;82.50
62926;BME280;55732;52.248;-0.844;2022-09-09T02:18:41;99393.67;;;15.11;82.52
62926;BME280;55732;52.248;-0.844;2022-09-09T02:21:09;99390.63;;;15.07;82.63
62926;BME280;55732;52.248;-0.844;2022-09-09T02:23:37;99390.90;;;15.05;82.82
62926;BME280;55732;52.248;-0.844;2022-09-09T02:26:05;99387.82;;;15.02;82.72
62926;BME280;55732;52.248;-0.844;2022-09-09T02:28:34;99385.60;;;14.99;82.87
62926;BME280;55732;52.248;-0.844;2022-09-09T02:31:01;99388.23;;;14.96;82.85
62926;BME280;55732;52.248;-0.844;2022-09-09T02:33:32;99386.92;;;14.93;82.96
62926;BME280;55732;52.248;-0.844;2022-09-09T02:36:01;99391.95;;;14.91;82.97
62926;BME280;55732;52.248;-0.844;2022-09-09T02:38:32;99395.71;;;14.90;82.82
62926;BME280;55732;52.248;-0.844;2022-09-09T02:41:00;99396.06;;;14.90;82.64
62926;BME280;55732;52.248;-0.844;2022-09-09T02:43:31;99401.05;;;14.90;82.64
62926;BME280;55732;52.248;-0.844;2022-09-09T02:46:07;99401.47;;;14.88;82.38
62926;BME280;55732;52.248;-0.844;2022-09-09T02:49:00;99405.45;;;14.86;82.60
62926;BME280;55732;52.248;-0.844;2022-09-09T02:52:04;99404.45;;;14.85;82.54
62926;BME280;55732;52.248;-0.844;2022-09-09T02:54:35;99403.13;;;14.82;82.45
62926;BME280;55732;52.248;-0.844;2022-09-09T02:57:25;99399.71;;;14.78;82.76
62926;BME280;55732;52.248;-0.844;2022-09-09T02:59:53;99403.05;;;14.74;82.62
62926;BME280;55732;52.248;-0.844;2022-09-09T03:02:19;99403.33;;;14.72;82.87
62926;BME280;55732;52.248;-0.844;2022-09-09T03:04:44;99402.48;;;14.70;82.78
62926;BME280;55732;52.248;-0.844;2022-09-09T03:07:16;99402.52;;;14.69;82.82
62926;BME280;55732;52.248;-0.844;2022-09-09T03:09:42;99404.13;;;14.69;82.76
62926;BME280;55732;52.248;-0.844;2022-09-09T03:12:08;99402.38;;;14.68;82.79
62926;BME280;55732;52.248;-0.844;2022-09-09T03:14:33;99399.60;;;14.67;82.63
62926;BME280;55732;52.248;-0.844;2022-09-09T03:16:58;99407.64;;;14.65;82.57
62926;BME280;55732;52.248;-0.844;2022-09-09T03:19:26;99409.34;;;14.63;82.56
62926;BME280;55732;52.248;-0.844;2022-09-09T03:21:53;99408.35;;;14.61;82.41
62926;BME280;55732;52.248;-0.844;2022-09-09T03:24:18;99406.31;;;14.58;82.48
62926;BME280;55732;52.248;-0.844;2022-09-09T03:26:44;99403.05;;;14.55;82.47
62926;BME280;55732;52.248;-0.844;2022-09-09T03:29:11;99402.11;;;14.52;82.48
62926;BME280;55732;52.248;-0.844;2022-09-09T03:31:37;99404.85;;;14.50;82.56
62926;BME280;55732;52.248;-0.844;2022-09-09T03:34:03;99401.20;;;14.48;82.59
62926;BME280;55732;52.248;-0.844;2022-09-09T03:36:28;99402.53;;;14.45;82.49
62926;BME280;55732;52.248;-0.844;2022-09-09T03:38:54;99409.40;;;14.40;82.63
62926;BME280;55732;52.248;-0.844;2022-09-09T03:41:23;99410.54;;;14.33;82.82
62926;BME280;55732;52.248;-0.844;2022-09-09T03:43:50;99410.05;;;14.27;83.20
62926;BME280;55732;52.248;-0.844;2022-09-09T03:46:17;99414.60;;;14.23;83.22
62926;BME280;55732;52.248;-0.844;2022-09-09T03:48:43;99417.41;;;14.18;83.47
62926;BME280;55732;52.248;-0.844;2022-09-09T03:51:09;99422.81;;;14.16;83.66
62926;BME280;55732;52.248;-0.844;2022-09-09T03:53:34;99422.94;;;14.13;83.74
62926;BME280;55732;52.248;-0.844;2022-09-09T03:56:00;99429.02;;;14.11;83.88
62926;BME280;55732;52.248;-0.844;2022-09-09T03:58:27;99427.81;;;14.10;83.82
62926;BME280;55732;52.248;-0.844;2022-09-09T04:01:04;99430.31;;;14.09;83.74
62926;BME280;55732;52.248;-0.844;2022-09-09T04:03:30;99436.20;;;14.08;83.90
62926;BME280;55732;52.248;-0.844;2022-09-09T04:05:59;99435.73;;;14.05;83.91
62926;BME280;55732;52.248;-0.844;2022-09-09T04:08:25;99447.08;;;14.05;84.16
62926;BME280;55732;52.248;-0.844;2022-09-09T04:10:51;99449.95;;;14.04;84.25
62926;BME280;55732;52.248;-0.844;2022-09-09T04:13:17;99452.96;;;14.04;84.31
62926;BME280;55732;52.248;-0.844;2022-09-09T04:15:44;99453.25;;;14.06;84.38
62926;BME280;55732;52.248;-0.844;2022-09-09T04:18:15;99456.88;;;14.08;84.55
62926;BME280;55732;52.248;-0.844;2022-09-09T04:20:40;99453.77;;;14.12;84.54
62926;BME280;55732;52.248;-0.844;2022-09-09T04:23:06;99458.71;;;14.17;84.44
62926;BME280;55732;52.248;-0.844;2022-09-09T04:25:31;99459.11;;;14.21;84.76
62926;BME280;55732;52.248;-0.844;2022-09-09T04:27:57;99455.79;;;14.25;84.72
62926;BME280;55732;52.248;-0.844;2022-09-09T04:30:23;99455.48;;;14.28;84.65
62926;BME280;55732;52.248;-0.844;2022-09-09T04:32:50;99457.61;;;14.34;84.99
62926;BME280;55732;52.248;-0.844;2022-09-09T04:35:16;99466.85;;;14.38;85.01
62926;BME280;55732;52.248;-0.844;2022-09-09T04:37:41;99465.29;;;14.43;84.91
62926;BME280;55732;52.248;-0.844;2022-09-09T04:40:07;99466.70;;;14.49;84.88
62926;BME280;55732;52.248;-0.844;2022-09-09T04:42:37;99465.81;;;14.54;84.93
62926;BME280;55732;52.248;-0.844;2022-09-09T04:45:04;99465.90;;;14.56;84.81
62926;BME280;55732;52.248;-0.844;2022-09-09T04:47:29;99472.34;;;14.59;84.80
62926;BME280;55732;52.248;-0.844;2022-09-09T04:49:55;99472.95;;;14.62;84.59
62926;BME280;55732;52.248;-0.844;2022-09-09T04:52:21;99474.30;;;14.64;84.74
62926;BME280;55732;52.248;-0.844;2022-09-09T04:54:47;99477.23;;;14.66;84.70
62926;BME280;55732;52.248;-0.844;2022-09-09T04:57:13;99478.27;;;14.67;84.82
62926;BME280;55732;52.248;-0.844;2022-09-09T04:59:38;99482.11;;;14.68;84.70
62926;BME280;55732;52.248;-0.844;2022-09-09T05:02:04;99479.94;;;14.70;84.85
62926;BME280;55732;52.248;-0.844;2022-09-09T05:04:30;99480.43;;;14.71;84.71
62926;BME280;55732;52.248;-0.844;2022-09-09T05:06:55;99482.17;;;14.72;84.59
62926;BME280;55732;52.248;-0.844;2022-09-09T05:09:21;99480.16;;;14.74;84.76
62926;BME280;55732;52.248;-0.844;2022-09-09T05:11:46;99485.20;;;14.76;84.53
62926;BME280;55732;52.248;-0.844;2022-09-09T05:14:12;99483.18;;;14.78;84.59
62926;BME280;55732;52.248;-0.844;2022-09-09T05:16:37;99485.04;;;14.80;84.78
62926;BME280;55732;52.248;-0.844;2022-09-09T05:19:03;99483.85;;;14.84;84.63
62926;BME280;55732;52.248;-0.844;2022-09-09T05:21:29;99487.09;;;14.87;84.49
62926;BME280;55732;52.248;-0.844;2022-09-09T05:23:55;99488.78;;;14.89;84.56
62926;BME280;55732;52.248;-0.844;2022-09-09T05:26:22;99490.67;;;14.91;84.50
62926;BME280;55732;52.248;-0.844;2022-09-09T05:28:48;99494.73;;;14.92;84.46
62926;BME280;55732;52.248;-0.844;2022-09-09T05:31:15;99495.70;;;14.95;84.64
62926;BME280;55732;52.248;-0.844;2022-09-09T05:33:42;99501.27;;;14.97;84.43
62926;BME280;55732;52.248;-0.844;2022-09-09T05:36:16;99495.66;;;15.00;84.52
62926;BME280;55732;52.248;-0.844;2022-09-09T05:38:42;99499.46;;;15.03;84.41
62926;BME280;55732;52.248;-0.844;2022-09-09T05:41:09;99501.90;;;15.04;84.43
62926;BME280;55732;52.248;-0.844;2022-09-09T05:43:36;99501.70;;;15.05;84.37
62926;BME280;55732;52.248;-0.844;2022-09-09T05:46:10;99499.38;;;15.05;84.45
62926;BME280;55732;52.248;-0.844;2022-09-09T05:48:38;99497.73;;;15.06;84.46
62926;BME280;55732;52.248;-0.844;2022-09-09T05:51:05;99501.02;;;15.09;84.51
62926;BME280;55732;52.248;-0.844;2022-09-09T05:53:34;99504.28;;;15.11;84.38
62926;BME280;55732;52.248;-0.844;2022-09-09T05:56:07;99510.73;;;15.14;84.68
62926;BME280;55732;52.248;-0.844;2022-09-09T05:58:36;99514.71;;;15.17;84.36
62926;BME280;55732;52.248;-0.844;2022-09-09T06:03:40;99518.40;;;15.23;84.46
62926;BME280;55732;52.248;-0.844;2022-09-09T06:06:08;99519.77;;;15.24;84.42
62926;BME280;55732;52.248;-0.844;2022-09-09T06:08:37;99522.05;;;15.25;84.19
62926;BME280;55732;52.248;-0.844;2022-09-09T06:11:08;99525.21;;;15.26;84.32
62926;BME280;55732;52.248;-0.844;2022-09-09T06:13:34;99526.67;;;15.24;84.35
62926;BME280;55732;52.248;-0.844;2022-09-09T06:16:00;99532.64;;;15.22;84.24
62926;BME280;55732;52.248;-0.844;2022-09-09T06:18:26;99530.86;;;15.17;84.39
62926;BME280;55732;52.248;-0.844;2022-09-09T06:20:56;99533.40;;;15.15;84.34
62926;BME280;55732;52.248;-0.844;2022-09-09T06:23:22;99535.35;;;15.15;84.33
62926;BME280;55732;52.248;-0.844;2022-09-09T06:25:47;99534.21;;;15.17;84.37
62926;BME280;55732;52.248;-0.844;2022-09-09T06:28:14;99540.46;;;15.21;84.46
62926;BME280;55732;52.248;-0.844;2022-09-09T06:30:41;99534.94;;;15.26;84.08
62926;BME280;55732;52.248;-0.844;2022-09-09T06:33:06;99537.34;;;15.29;84.00
62926;BME280;55732;52.248;-0.844;2022-09-09T06:35:32;99538.52;;;15.31;83.99
62926;BME280;55732;52.248;-0.844;2022-09-09T06:37:57;99545.88;;;15.33;83.95
62926;BME280;55732;52.248;-0.844;2022-09-09T06:40:24;99539.21;;;15.35;83.81
62926;BME280;55732;52.248;-0.844;2022-09-09T06:42:49;99544.10;;;15.37;83.69
62926;BME280;55732;52.248;-0.844;2022-09-09T06:45:15;99545.32;;;15.38;83.50
62926;BME280;55732;52.248;-0.844;2022-09-09T06:47:40;99547.89;;;15.41;83.64
62926;BME280;55732;52.248;-0.844;2022-09-09T06:50:07;99551.77;;;15.41;83.50
62926;BME280;55732;52.248;-0.844;2022-09-09T06:52:33;99550.58;;;15.40;83.54
62926;BME280;55732;52.248;-0.844;2022-09-09T06:54:58;99555.38;;;15.40;83.66
62926;BME280;55732;52.248;-0.844;2022-09-09T06:57:24;99553.21;;;15.40;83.50
62926;BME280;55732;52.248;-0.844;2022-09-09T06:59:49;99555.97;;;15.43;83.66
62926;BME280;55732;52.248;-0.844;2022-09-09T07:02:15;99557.81;;;15.46;83.49
62926;BME280;55732;52.248;-0.844;2022-09-09T07:04:41;99565.55;;;15.47;83.28
62926;BME280;55732;52.248;-0.844;2022-09-09T07:07:06;99566.05;;;15.48;83.27
62926;BME280;55732;52.248;-0.844;2022-09-09T07:09:33;99563.80;;;15.46;83.27
62926;BME280;55732;52.248;-0.844;2022-09-09T07:11:58;99568.56;;;15.43;83.30
62926;BME280;55732;52.248;-0.844;2022-09-09T07:14:24;99569.88;;;15.41;83.54
62926;BME280;55732;52.248;-0.844;2022-09-09T07:16:50;99566.09;;;15.33;83.31
62926;BME280;55732;52.248;-0.844;2022-09-09T07:19:16;99576.52;;;15.39;83.52
62926;BME280;55732;52.248;-0.844;2022-09-09T07:21:42;99580.17;;;15.41;83.34
62926;BME280;55732;52.248;-0.844;2022-09-09T07:24:08;99587.27;;;15.41;83.28
62926;BME280;55732;52.248;-0.844;2022-09-09T07:26:36;99583.11;;;15.38;83.36
62926;BME280;55732;52.248;-0.844;2022-09-09T07:29:02;99584.88;;;15.33;83.45
62926;BME280;55732;52.248;-0.844;2022-09-09T07:31:30;99587.06;;;15.27;83.62
62926;BME280;55732;52.248;-0.844;2022-09-09T07:33:57;99592.65;;;15.24;83.64
62926;BME280;55732;52.248;-0.844;2022-09-09T07:36:25;99592.35;;;15.23;83.87
62926;BME280;55732;52.248;-0.844;2022-09-09T07:38:58;99596.02;;;15.24;83.74
62926;BME280;55732;52.248;-0.844;2022-09-09T07:41:39;99594.27;;;15.24;83.55
62926;BME280;55732;52.248;-0.844;2022-09-09T07:44:17;99598.30;;;15.21;83.58
62926;BME280;55732;52.248;-0.844;2022-09-09T07:46:43;99599.13;;;15.22;83.84
62926;BME280;55732;52.248;-0.844;2022-09-09T07:49:10;99604.38;;;15.24;83.71
62926;BME280;55732;52.248;-0.844;2022-09-09T07:51:42;99603.48;;;15.30;83.83
62926;BME280;55732;52.248;-0.844;2022-09-09T07:54:10;99606.42;;;15.36;83.69
62926;BME280;55732;52.248;-0.844;2022-09-09T07:56:37;99607.66;;;15.41;83.52
62926;BME280;55732;52.248;-0.844;2022-09-09T07:59:03;99610.05;;;15.48;83.40
62926;BME280;55732;52.248;-0.844;2022-09-09T08:01:37;99616.39;;;15.55;83.13
62926;BME280;55732;52.248;-0.844;2022-09-09T08:04:08;99614.95;;;15.60;83.29
62926;BME280;55732;52.248;-0.844;2022-09-09T08:06:39;99621.64;;;15.67;83.06
62926;BME280;55732;52.248;-0.844;2022-09-09T08:09:06;99628.13;;;15.73;82.78
62926;BME280;55732;52.248;-0.844;2022-09-09T08:11:32;99630.61;;;15.78;82.51
62926;BME280;55732;52.248;-0.844;2022-09-09T08:13:58;99630.45;;;15.87;82.19
62926;BME280;55732;52.248;-0.844;2022-09-09T08:16:27;99632.63;;;15.95;81.96
62926;BME280;55732;52.248;-0.844;2022-09-09T08:18:53;99637.95;;;16.05;81.85
62926;BME280;55732;52.248;-0.844;2022-09-09T08:21:25;99639.79;;;16.17;81.76
62926;BME280;55732;52.248;-0.844;2022-09-09T08:23:54;99638.52;;;16.21;81.29
62926;BME280;55732;52.248;-0.844;2022-09-09T08:26:23;99640.44;;;16.27;81.37
62926;BME280;55732;52.248;-0.844;2022-09-09T08:28:51;99640.88;;;16.34;81.08
62926;BME280;55732;52.248;-0.844;2022-09-09T08:31:38;99642.77;;;16.40;80.91
62926;BME280;55732;52.248;-0.844;2022-09-09T08:34:05;99646.50;;;16.49;80.63
62926;BME280;55732;52.248;-0.844;2022-09-09T08:36:34;99648.38;;;16.55;80.66
62926;BME280;55732;52.248;-0.844;2022-09-09T08:39:00;99652.31;;;16.58;80.28
62926;BME280;55732;52.248;-0.844;2022-09-09T08:50:28;99655.42;;;16.74;79.62
62926;BME280;55732;52.248;-0.844;2022-09-09T08:53:05;99653.64;;;16.88;79.25
62926;BME280;55732;52.248;-0.844;2022-09-09T08:55:40;99654.73;;;17.71;77.83
62926;BME280;55732;52.248;-0.844;2022-09-09T08:58:19;99652.31;;;18.69;75.48
62926;BME280;55732;52.248;-0.844;2022-09-09T09:00:49;99658.29;;;21.32;70.21
62926;BME280;55732;52.248;-0.844;2022-09-09T09:11:12;99675.34;;;26.46;57.88
62926;BME280;55732;52.248;-0.844;2022-09-09T09:16:36;99683.33;;;28.00;52.66
62926;BME280;55732;52.248;-0.844;2022-09-09T09:19:05;99686.57;;;28.12;51.42
62926;BME280;55732;52.248;-0.844;2022-09-09T09:27:13;99697.23;;;26.14;52.98
62926;BME280;55732;52.248;-0.844;2022-09-09T09:29:41;99696.99;;;25.27;53.63
62926;BME280;55732;52.248;-0.844;2022-09-09T09:32:12;99702.91;;;24.52;54.42
62926;BME280;55732;52.248;-0.844;2022-09-09T09:34:39;99708.81;;;23.82;55.14
62926;BME280;55732;52.248;-0.844;2022-09-09T09:37:23;99711.77;;;23.21;56.78
62926;BME280;55732;52.248;-0.844;2022-09-09T09:39:53;99711.88;;;22.81;57.09
62926;BME280;55732;52.248;-0.844;2022-09-09T09:42:18;99714.55;;;22.51;57.72
62926;BME280;55732;52.248;-0.844;2022-09-09T09:44:44;99716.95;;;22.31;58.39
62926;BME280;55732;52.248;-0.844;2022-09-09T09:47:16;99719.61;;;23.47;56.57
62926;BME280;55732;52.248;-0.844;2022-09-09T09:49:55;99716.06;;;25.44;53.25
62926;BME280;55732;52.248;-0.844;2022-09-09T09:52:28;99716.50;;;26.29;51.48
62926;BME280;55732;52.248;-0.844;2022-09-09T09:54:56;99713.66;;;27.62;48.81
62926;BME280;55732;52.248;-0.844;2022-09-09T09:57:25;99718.00;;;28.21;48.24
62926;BME280;55732;52.248;-0.844;2022-09-09T10:00:17;99721.44;;;28.27;46.88
62926;BME280;55732;52.248;-0.844;2022-09-09T10:02:44;99716.27;;;27.11;47.77
62926;BME280;55732;52.248;-0.844;2022-09-09T10:05:16;99720.92;;;26.16;49.82
62926;BME280;55732;52.248;-0.844;2022-09-09T10:07:43;99722.95;;;25.32;50.80
62926;BME280;55732;52.248;-0.844;2022-09-09T10:10:12;99717.42;;;24.73;51.85
62926;BME280;55732;52.248;-0.844;2022-09-09T10:13:07;99724.08;;;24.03;52.40
62926;BME280;55732;52.248;-0.844;2022-09-09T10:16:05;99719.89;;;24.06;52.67
62926;BME280;55732;52.248;-0.844;2022-09-09T10:18:55;99716.30;;;26.33;49.09
62926;BME280;55732;52.248;-0.844;2022-09-09T10:27:31;99717.95;;;29.64;43.63
62926;BME280;55732;52.248;-0.844;2022-09-09T10:30:24;99721.40;;;30.14;42.20
62926;BME280;55732;52.248;-0.844;2022-09-09T10:33:16;99717.71;;;28.91;43.70
62926;BME280;55732;52.248;-0.844;2022-09-09T10:38:48;99729.02;;;26.85;45.99
62926;BME280;55732;52.248;-0.844;2022-09-09T10:41:25;99734.11;;;25.84;47.57
62926;BME280;55732;52.248;-0.844;2022-09-09T10:50:11;99740.02;;;23.54;51.28
62926;BME280;55732;52.248;-0.844;2022-09-09T10:55:33;99739.77;;;23.34;52.55
62926;BME280;55732;52.248;-0.844;2022-09-09T10:58:02;99740.12;;;23.43;52.46
62926;BME280;55732;52.248;-0.844;2022-09-09T11:00:47;99742.38;;;23.49;52.15
62926;BME280;55732;52.248;-0.844;2022-09-09T11:03:26;99741.64;;;23.33;52.21
62926;BME280;55732;52.248;-0.844;2022-09-09T11:08:30;99747.72;;;22.63;53.08
62926;BME280;55732;52.248;-0.844;2022-09-09T11:13:57;99754.92;;;21.85;54.88
62926;BME280;55732;52.248;-0.844;2022-09-09T11:19:15;99756.04;;;21.27;56.68
62926;BME280;55732;52.248;-0.844;2022-09-09T11:21:48;99754.83;;;21.08;57.34
62926;BME280;55732;52.248;-0.844;2022-09-09T11:24:26;99757.67;;;21.01;57.53
62926;BME280;55732;52.248;-0.844;2022-09-09T11:40:43;99754.64;;;22.66;56.88
62926;BME280;55732;52.248;-0.844;2022-09-09T11:43:33;99754.71;;;22.71;56.59
62926;BME280;55732;52.248;-0.844;2022-09-09T11:46:05;99756.49;;;22.80;56.54
62926;BME280;55732;52.248;-0.844;2022-09-09T11:48:44;99756.74;;;22.70;56.59
62926;BME280;55732;52.248;-0.844;2022-09-09T11:51:26;99756.74;;;22.59;56.62
62926;BME280;55732;52.248;-0.844;2022-09-09T11:53:58;99756.32;;;22.65;56.56
62926;BME280;55732;52.248;-0.844;2022-09-09T11:59:03;99763.34;;;22.54;56.92
62926;BME280;55732;52.248;-0.844;2022-09-09T12:01:37;99762.11;;;22.73;56.67
62926;BME280;55732;52.248;-0.844;2022-09-09T12:07:05;99755.99;;;23.15;55.57
62926;BME280;55732;52.248;-0.844;2022-09-09T12:09:50;99757.41;;;23.36;54.59
62926;BME280;55732;52.248;-0.844;2022-09-09T12:17:24;99750.77;;;23.58;52.85
62926;BME280;55732;52.248;-0.844;2022-09-09T12:20:16;99756.19;;;23.68;52.94
62926;BME280;55732;52.248;-0.844;2022-09-09T12:25:35;99754.84;;;23.62;52.22
62926;BME280;55732;52.248;-0.844;2022-09-09T12:33:16;99757.52;;;22.89;53.16
62926;BME280;55732;52.248;-0.844;2022-09-09T12:35:44;99767.65;;;22.62;54.33
62926;BME280;55732;52.248;-0.844;2022-09-09T12:38:15;99773.14;;;22.38;55.60
62926;BME280;55732;52.248;-0.844;2022-09-09T12:40:54;99770.66;;;22.15;56.67
62926;BME280;55732;52.248;-0.844;2022-09-09T12:43:22;99770.98;;;21.98;57.29
62926;BME280;55732;52.248;-0.844;2022-09-09T12:45:50;99777.75;;;21.86;57.89
62926;BME280;55732;52.248;-0.844;2022-09-09T12:48:27;99775.41;;;21.81;58.08
62926;BME280;55732;52.248;-0.844;2022-09-09T12:50:53;99775.71;;;21.85;58.04
62926;BME280;55732;52.248;-0.844;2022-09-09T12:53:31;99774.13;;;21.96;58.20
62926;BME280;55732;52.248;-0.844;2022-09-09T12:56:04;99776.11;;;22.16;57.93
62926;BME280;55732;52.248;-0.844;2022-09-09T12:58:32;99778.97;;;22.54;56.84
62926;BME280;55732;52.248;-0.844;2022-09-09T13:00:59;99773.62;;;22.79;56.19
62926;BME280;55732;52.248;-0.844;2022-09-09T13:03:25;99765.85;;;23.02;55.46
62926;BME280;55732;52.248;-0.844;2022-09-09T13:05:52;99771.29;;;23.25;55.08
62926;BME280;55732;52.248;-0.844;2022-09-09T13:08:19;99777.98;;;23.46;54.38
62926;BME280;55732;52.248;-0.844;2022-09-09T13:13:52;99780.23;;;23.71;53.83
62926;BME280;55732;52.248;-0.844;2022-09-09T13:16:26;99787.71;;;23.83;53.00
62926;BME280;55732;52.248;-0.844;2022-09-09T13:18:58;99792.66;;;24.02;53.44
62926;BME280;55732;52.248;-0.844;2022-09-09T13:21:36;99796.33;;;24.14;54.55
62926;BME280;55732;52.248;-0.844;2022-09-09T13:24:04;99806.09;;;23.98;55.25
62926;BME280;55732;52.248;-0.844;2022-09-09T13:26:33;99824.48;;;23.66;55.08
62926;BME280;55732;52.248;-0.844;2022-09-09T13:29:29;99838.06;;;23.21;56.63
62926;BME280;55732;52.248;-0.844;2022-09-09T13:32:04;99840.18;;;22.47;59.05
62926;BME280;55732;52.248;-0.844;2022-09-09T13:34:35;99834.16;;;21.96;61.38
62926;BME280;55732;52.248;-0.844;2022-09-09T13:37:05;99826.56;;;21.61;62.28
62926;BME280;55732;52.248;-0.844;2022-09-09T13:39:33;99825.17;;;21.30;62.94
62926;BME280;55732;52.248;-0.844;2022-09-09T13:41:59;99827.79;;;21.02;64.25
62926;BME280;55732;52.248;-0.844;2022-09-09T13:44:30;99832.88;;;20.82;65.85
62926;BME280;55732;52.248;-0.844;2022-09-09T13:47:21;99836.45;;;20.62;66.94
62926;BME280;55732;52.248;-0.844;2022-09-09T13:49:48;99837.20;;;20.45;67.44
62926;BME280;55732;52.248;-0.844;2022-09-09T13:52:18;99838.42;;;20.32;66.77
62926;BME280;55732;52.248;-0.844;2022-09-09T13:54:51;99838.99;;;20.18;65.93
62926;BME280;55732;52.248;-0.844;2022-09-09T13:57:22;99832.95;;;20.00;65.13
62926;BME280;55732;52.248;-0.844;2022-09-09T13:59:54;99833.08;;;19.77;65.19
62926;BME280;55732;52.248;-0.844;2022-09-09T14:02:22;99835.73;;;19.60;65.71
62926;BME280;55732;52.248;-0.844;2022-09-09T14:04:49;99837.16;;;19.45;66.41
62926;BME280;55732;52.248;-0.844;2022-09-09T14:07:17;99844.46;;;19.31;67.02
62926;BME280;55732;52.248;-0.844;2022-09-09T14:09:43;99847.92;;;19.19;67.75
62926;BME280;55732;52.248;-0.844;2022-09-09T14:12:11;99853.17;;;19.09;68.73
62926;BME280;55732;52.248;-0.844;2022-09-09T14:14:37;99853.63;;;19.00;69.67
62926;BME280;55732;52.248;-0.844;2022-09-09T14:17:02;99852.64;;;18.95;70.50
62926;BME280;55732;52.248;-0.844;2022-09-09T14:19:29;99851.79;;;18.94;70.75
62926;BME280;55732;52.248;-0.844;2022-09-09T14:21:56;99854.02;;;18.96;71.09
62926;BME280;55732;52.248;-0.844;2022-09-09T14:24:21;99852.13;;;19.01;71.29
62926;BME280;55732;52.248;-0.844;2022-09-09T14:26:46;99848.69;;;19.10;71.34
62926;BME280;55732;52.248;-0.844;2022-09-09T14:29:13;99845.91;;;19.20;72.26
62926;BME280;55732;52.248;-0.844;2022-09-09T14:31:38;99840.60;;;19.37;71.91
62926;BME280;55732;52.248;-0.844;2022-09-09T14:34:03;99838.15;;;19.65;71.95
62926;BME280;55732;52.248;-0.844;2022-09-09T14:36:29;99841.45;;;19.91;71.85
62926;BME280;55732;52.248;-0.844;2022-09-09T14:38:55;99843.92;;;19.99;70.45
62926;BME280;55732;52.248;-0.844;2022-09-09T14:41:20;99850.65;;;20.04;70.82
62926;BME280;55732;52.248;-0.844;2022-09-09T14:43:48;99857.64;;;20.06;70.59
62926;BME280;55732;52.248;-0.844;2022-09-09T14:46:15;99862.52;;;20.05;70.89
62926;BME280;55732;52.248;-0.844;2022-09-09T14:48:41;99870.47;;;20.00;70.89
62926;BME280;55732;52.248;-0.844;2022-09-09T14:51:13;99868.73;;;19.93;71.18